Portada
METAR-TAF:

METAR-TAF

Aeropuertos :

Aeropuerto Internacional de Bangor

Bangor, Maine, Estados Unidos

latitud: 44-47-50N, longitud: 068-49-07W, altitud: 58 m

Observación

El informe se hizo hace 17 minutos, a las 21:53 UTC
Viento 6 kt del norte-noroeste
Temperatura 12°C
Humedad 50%
Presión 1014 hPa
Visibilidad: 16.1 km
Cielo cubierto a una altura de 4800 ft

METAR: KBGR 252153Z 34006KT 10SM OVC048 12/02 A2993 RMK AO2 SLP135 T01170017

Hora: 18:10 (22:10 UTC)

Pronóstico

El informe se hizo hace 4 horas y 37 minutos, a las 17:33 UTC
Pronóstico válido del 25 a las 18 UTC al 26 a las 18 UTC
Viento 4 kt con dirección variable
Visibilidad: 10 km
Cielo nuboso a una altura de 4000 ft
A partir de las 26 a las 1700 UTC
Viento 10 kt del sur-sureste
Visibilidad: 10 km
Cielo cubierto a una altura de 3500 ft
chaparrones en las proximidades

TAF: KBGR 251733Z 2518/2618 VRB04KT P6SM BKN040 FM261700 15010KT P6SM VCSH OVC035

Observaciones y pronósticos meteorológicos de más de 4000 aeropuertos (mensajes METAR y TAF).

Los puntos amarillos y rojos representan las estaciones disponibles.

Ponga el ratón en el punto deseado para ver el nombre de la estación.

Haga clic para ver las observaciones y los pronósticos meteorológicos.

Para cambiar el mapa : haga clic en los botones verdes con una cruz de color negro para hacer un zoom, en el botón verde con un guión para alejar o en las flechas verdes para mapas adyacentes.


METAR-TAF: